In Rescue
 
Open Full Screen Window  High Contrast Mode
March 04, 2021 3:57 AM CST
Weather Information
Wind Direction
  ---
Wind Speed
  00 kt (0 mph)
Wind Gust
  00 kt (0 mph)
Altimeter
30.23 in
Visibility
10 SM
Temperature
01° C
34° F
Dewpoint
-03° C
27° F
Humidity
75%
1hr Rain Fall
00.00 in.
24hr Rain Fall
00.00 in.
Sky Condition
Clear
VFR

METAR K9MN 040957Z AUTO 00000KT 10SM CLR 01/M03 A3023 RMK AO1 T00111030

FAA Disclaimer: The data displayed is for advisory purposes only and is not to be used for flight planning or operations.